createdAt,value
2023-02-02T00:01:50.854Z,9.70
2023-02-02T00:18:19.759Z,4.10
2023-02-02T00:20:50.059Z,5.70
2023-02-02T00:23:20.708Z,5.70
2023-02-02T00:25:52.580Z,12.00
2023-02-02T00:28:22.586Z,8.70
2023-02-02T00:42:15.836Z,6.80
2023-02-02T00:45:04.132Z,7.50
2023-02-02T00:47:42.376Z,4.80
2023-02-02T00:50:15.216Z,8.00
2023-02-02T01:03:39.137Z,4.30
2023-02-02T01:06:12.734Z,4.40
2023-02-02T01:11:50.422Z,9.20
2023-02-02T01:14:28.019Z,14.60
2023-02-02T01:17:06.932Z,15.80
2023-02-02T01:20:04.385Z,13.20
2023-02-02T01:22:41.149Z,7.90
2023-02-02T01:25:18.420Z,8.70
2023-02-02T01:27:52.392Z,10.60
2023-02-02T01:30:25.314Z,13.60
2023-02-02T01:32:59.875Z,18.50
2023-02-02T01:35:36.148Z,12.50
2023-02-02T01:38:12.331Z,10.80
2023-02-02T01:40:50.302Z,12.70
2023-02-02T01:57:20.750Z,11.10
2023-02-02T01:59:57.182Z,11.30
2023-02-02T02:02:33.120Z,12.10
2023-02-02T02:05:11.361Z,8.90
2023-02-02T02:08:11.834Z,14.20
2023-02-02T02:10:49.138Z,20.00
2023-02-02T02:13:42.862Z,22.10
2023-02-02T02:16:23.624Z,15.00
2023-02-02T02:19:07.435Z,13.20
2023-02-02T02:22:11.569Z,11.70
2023-02-02T02:25:35.854Z,12.60
2023-02-02T02:28:40.351Z,19.00
2023-02-02T02:31:43.042Z,20.60
2023-02-02T02:34:25.934Z,16.20
2023-02-02T02:37:09.022Z,17.80
2023-02-02T02:39:51.799Z,11.90
2023-02-02T02:42:30.781Z,20.50
2023-02-02T02:45:06.279Z,18.30
2023-02-02T02:47:40.797Z,20.60
2023-02-02T02:50:15.574Z,24.90
2023-02-02T02:52:49.739Z,21.30
2023-02-02T02:55:23.130Z,17.30
2023-02-02T02:58:08.899Z,14.10
2023-02-02T03:01:09.075Z,16.00
2023-02-02T03:04:06.758Z,21.70
2023-02-02T03:06:49.224Z,20.30
2023-02-02T03:09:27.177Z,15.40
2023-02-02T03:12:01.063Z,12.70
2023-02-02T03:14:38.088Z,18.10
2023-02-02T03:17:13.691Z,12.80
2023-02-02T03:19:46.816Z,14.50
2023-02-02T03:22:19.375Z,22.90
2023-02-02T03:24:52.267Z,14.30
2023-02-02T03:27:26.153Z,21.70
2023-02-02T03:29:59.448Z,19.20
2023-02-02T03:32:32.062Z,15.20
2023-02-02T03:35:05.304Z,8.40
2023-02-02T03:37:38.105Z,15.20
2023-02-02T03:40:12.816Z,17.60
2023-02-02T03:42:45.734Z,16.80
2023-02-02T03:45:21.437Z,13.20
2023-02-02T03:47:54.153Z,16.30
2023-02-02T03:50:27.388Z,15.60
2023-02-02T03:52:59.949Z,15.70
2023-02-02T03:55:32.898Z,22.50
2023-02-02T03:58:05.525Z,17.50
2023-02-02T04:00:42.236Z,11.20
2023-02-02T04:03:17.237Z,14.00
2023-02-02T04:05:53.583Z,14.50
2023-02-02T04:08:26.299Z,9.80
2023-02-02T04:11:00.707Z,14.20
2023-02-02T04:13:33.197Z,13.10
2023-02-02T04:16:06.465Z,12.40
2023-02-02T04:32:46.357Z,13.30
2023-02-02T04:35:17.715Z,19.50
2023-02-02T04:37:47.135Z,20.10
2023-02-02T04:51:06.972Z,15.00
2023-02-02T04:53:39.878Z,15.80
2023-02-02T04:56:14.163Z,14.40
2023-02-02T04:58:52.559Z,10.30
2023-02-02T05:01:29.698Z,11.60
2023-02-02T05:04:02.402Z,13.80
2023-02-02T05:06:35.118Z,14.20
2023-02-02T05:09:07.775Z,14.80
2023-02-02T05:11:44.692Z,21.60
2023-02-02T05:14:37.286Z,13.50
2023-02-02T05:17:09.998Z,31.90
2023-02-02T05:19:42.830Z,77.40
2023-02-02T05:22:15.477Z,11.80
2023-02-02T05:24:48.134Z,15.60
2023-02-02T05:27:21.034Z,10.10
2023-02-02T05:29:53.560Z,14.50
2023-02-02T05:32:29.979Z,14.60
2023-02-02T05:35:02.961Z,12.90
2023-02-02T05:37:35.830Z,17.90
2023-02-02T05:40:09.956Z,19.40
2023-02-02T05:42:42.717Z,12.10
2023-02-02T05:45:15.707Z,11.30
2023-02-02T05:47:48.273Z,12.90
2023-02-02T05:50:21.192Z,11.90
2023-02-02T05:52:54.067Z,28.70
2023-02-02T05:55:27.295Z,444.50
2023-02-02T05:57:59.812Z,40.10
2023-02-02T06:00:34.725Z,24.00
2023-02-02T06:03:07.509Z,80.80
2023-02-02T06:05:40.262Z,20.20
2023-02-02T06:08:12.862Z,15.30
2023-02-02T06:10:45.575Z,14.40
2023-02-02T06:13:20.638Z,17.60
2023-02-02T06:15:54.653Z,20.20
2023-02-02T06:18:27.628Z,26.20
2023-02-02T06:21:01.963Z,14.70
2023-02-02T06:23:38.083Z,14.60
2023-02-02T06:26:10.760Z,13.80
2023-02-02T06:28:43.378Z,11.50
2023-02-02T06:31:19.252Z,14.50
2023-02-02T06:33:57.189Z,12.10
2023-02-02T06:36:30.214Z,10.40
2023-02-02T06:39:04.967Z,12.50
2023-02-02T06:44:44.316Z,10.80
2023-02-02T06:47:19.998Z,8.10
2023-02-02T06:49:52.543Z,10.90
2023-02-02T06:52:24.981Z,8.50
2023-02-02T06:54:57.382Z,29.20
2023-02-02T06:57:32.199Z,26.50
2023-02-02T07:00:05.231Z,6.00
2023-02-02T07:02:40.853Z,6.70
2023-02-02T07:05:13.718Z,6.10
2023-02-02T07:07:46.533Z,9.20
2023-02-02T07:11:13.236Z,8.60
2023-02-02T07:13:13.007Z,7.90
2023-02-02T07:15:46.168Z,5.40
2023-02-02T07:18:18.925Z,21.60
2023-02-02T07:20:54.142Z,8.00
2023-02-02T07:23:27.103Z,4.10
2023-02-02T07:26:10.343Z,6.70
2023-02-02T07:28:46.613Z,7.50
2023-02-02T07:31:22.873Z,8.60
2023-02-02T07:33:57.857Z,10.70
2023-02-02T07:36:30.651Z,9.40
2023-02-02T07:39:07.923Z,7.10
2023-02-02T07:41:40.581Z,7.30
2023-02-02T07:44:20.998Z,6.20
2023-02-02T07:46:53.666Z,6.20
2023-02-02T07:49:26.454Z,4.50
2023-02-02T07:51:59.090Z,9.60
2023-02-02T07:54:32.244Z,8.20
2023-02-02T07:57:07.642Z,3.80
2023-02-02T07:59:43.171Z,8.70
2023-02-02T08:02:16.058Z,5.10
2023-02-02T08:04:51.188Z,5.20
2023-02-02T08:07:24.926Z,9.40
2023-02-02T08:09:57.403Z,25.00
2023-02-02T08:12:30.349Z,5.70
2023-02-02T08:15:04.704Z,3.20
2023-02-02T08:17:37.562Z,4.60
2023-02-02T08:20:13.147Z,5.00
2023-02-02T08:22:48.269Z,8.40
2023-02-02T08:25:21.225Z,7.30
2023-02-02T08:27:58.807Z,5.90
2023-02-02T08:30:31.297Z,8.30
2023-02-02T08:33:03.832Z,19.20
2023-02-02T08:35:36.356Z,9.10
2023-02-02T08:38:08.769Z,15.00
2023-02-02T08:40:41.166Z,21.20
2023-02-02T08:43:17.818Z,17.50
2023-02-02T08:46:04.438Z,25.40
2023-02-02T08:48:41.051Z,23.60
2023-02-02T08:51:16.312Z,30.90
2023-02-02T08:53:49.710Z,29.20
2023-02-02T08:56:23.447Z,30.50
2023-02-02T08:58:58.209Z,21.00
2023-02-02T09:01:32.891Z,30.10
2023-02-02T09:04:06.969Z,32.20
2023-02-02T09:06:41.475Z,28.50
2023-02-02T09:09:16.742Z,24.80
2023-02-02T09:11:49.240Z,25.00
2023-02-02T09:14:21.992Z,21.60
2023-02-02T09:16:54.594Z,14.30
2023-02-02T09:19:27.273Z,22.60
2023-02-02T09:21:59.798Z,27.70
2023-02-02T09:24:32.448Z,39.60
2023-02-02T09:27:05.171Z,24.00
2023-02-02T09:29:37.888Z,17.00
2023-02-02T09:32:10.704Z,14.10
2023-02-02T09:34:43.252Z,12.60
2023-02-02T09:37:16.791Z,10.00
2023-02-02T09:39:49.918Z,9.20
2023-02-02T09:42:51.318Z,8.30
2023-02-02T09:45:27.941Z,11.40
2023-02-02T09:48:07.520Z,11.50
2023-02-02T09:50:54.309Z,11.70
2023-02-02T09:53:55.477Z,15.30
2023-02-02T09:56:44.959Z,24.70
2023-02-02T09:59:24.186Z,18.80
2023-02-02T10:02:15.187Z,29.20
2023-02-02T10:05:02.240Z,18.50
2023-02-02T10:07:45.778Z,13.10
2023-02-02T10:10:30.928Z,6.40
2023-02-02T10:13:14.085Z,11.00
2023-02-02T10:16:01.734Z,10.90
2023-02-02T10:18:45.025Z,12.40
2023-02-02T10:21:27.825Z,13.70
2023-02-02T10:24:02.373Z,6.60
2023-02-02T10:26:47.342Z,8.90
2023-02-02T10:29:46.990Z,12.80
2023-02-02T10:35:15.247Z,16.40
2023-02-02T10:37:57.763Z,9.70
2023-02-02T10:40:45.826Z,12.50
2023-02-02T10:44:04.406Z,11.40
2023-02-02T10:46:42.160Z,7.90
2023-02-02T10:49:28.668Z,6.80
2023-02-02T10:52:15.039Z,8.70
2023-02-02T10:55:22.164Z,8.10
2023-02-02T10:58:10.863Z,15.30
2023-02-02T11:00:51.027Z,16.40
2023-02-02T11:03:27.727Z,28.80
2023-02-02T11:06:20.470Z,56.70
2023-02-02T11:08:59.654Z,48.90
2023-02-02T11:11:35.616Z,29.30
2023-02-02T11:14:19.081Z,8.50
2023-02-02T11:17:05.020Z,16.30
2023-02-02T11:19:40.160Z,16.00
2023-02-02T11:22:31.260Z,8.40
2023-02-02T11:25:09.333Z,7.40
2023-02-02T11:27:45.083Z,10.60
2023-02-02T11:30:32.194Z,10.40
2023-02-02T11:33:28.654Z,8.90
2023-02-02T11:36:05.243Z,5.50
2023-02-02T11:41:44.955Z,7.60
2023-02-02T11:44:28.467Z,7.10
2023-02-02T11:47:02.973Z,11.60
2023-02-02T11:49:45.751Z,9.80
2023-02-02T11:52:32.734Z,7.50
2023-02-02T11:55:20.011Z,5.00
2023-02-02T11:58:27.773Z,9.10
2023-02-02T12:01:17.763Z,7.90
2023-02-02T12:03:52.055Z,12.50
2023-02-02T12:06:34.976Z,23.30
2023-02-02T12:15:50.713Z,28.80
2023-02-02T12:19:01.225Z,19.60
2023-02-02T12:22:00.945Z,7.80
2023-02-02T12:27:44.985Z,8.90
2023-02-02T12:31:17.553Z,10.20
2023-02-02T12:34:06.725Z,7.30
2023-02-02T12:37:11.853Z,8.40
2023-02-02T12:40:31.383Z,9.10
2023-02-02T12:54:57.032Z,25.60
2023-02-02T12:57:53.509Z,14.40
2023-02-02T13:14:34.127Z,71.20
2023-02-02T13:17:24.722Z,38.00
2023-02-02T13:20:02.376Z,45.60
2023-02-02T13:22:42.946Z,16.20
2023-02-02T13:25:27.197Z,9.60
2023-02-02T13:28:04.027Z,11.10
2023-02-02T13:30:49.260Z,23.90
2023-02-02T13:33:42.895Z,28.40
2023-02-02T13:36:30.947Z,32.40
2023-02-02T13:39:31.601Z,38.90
2023-02-02T13:42:26.166Z,25.60
2023-02-02T13:45:37.931Z,24.10
2023-02-02T13:49:05.177Z,69.30
2023-02-02T13:51:59.470Z,53.60
2023-02-02T13:55:05.925Z,45.30
2023-02-02T14:11:54.071Z,21.80
2023-02-02T14:14:52.982Z,64.40
2023-02-02T14:18:15.363Z,15.40
2023-02-02T14:20:54.022Z,24.10
2023-02-02T14:23:56.555Z,9.40
2023-02-02T14:26:51.297Z,22.20
2023-02-02T14:30:02.554Z,20.00
2023-02-02T14:33:15.081Z,19.30
2023-02-02T14:39:51.058Z,45.60
2023-02-02T14:42:53.565Z,28.20
2023-02-02T14:45:42.367Z,59.60
2023-02-02T14:48:59.500Z,23.30
2023-02-02T14:52:06.605Z,28.80
2023-02-02T14:54:54.433Z,12.70
2023-02-02T14:57:35.657Z,15.50
2023-02-02T15:00:26.572Z,16.40
2023-02-02T15:03:19.988Z,28.60
2023-02-02T15:06:16.369Z,95.80
2023-02-02T15:15:42.548Z,56.00
2023-02-02T15:18:51.812Z,19.60
2023-02-02T15:21:45.246Z,74.60
2023-02-02T15:25:01.028Z,31.90
2023-02-02T15:27:48.044Z,44.40
2023-02-02T15:30:38.058Z,23.40
2023-02-02T15:33:26.374Z,10.60
2023-02-02T15:36:03.688Z,11.10
2023-02-02T15:38:41.499Z,13.40
2023-02-02T15:41:26.545Z,19.90
2023-02-02T15:44:25.396Z,15.10
2023-02-02T15:47:07.463Z,11.80
2023-02-02T15:49:41.858Z,24.10
2023-02-02T15:52:40.862Z,134.20
2023-02-02T15:55:39.439Z,72.70
2023-02-02T15:58:27.875Z,132.60
2023-02-02T16:15:55.331Z,12.20
2023-02-02T16:29:43.276Z,13.20
2023-02-02T16:32:28.385Z,16.80
2023-02-02T16:35:11.196Z,28.00
2023-02-02T16:37:41.978Z,112.50
2023-02-02T16:41:03.429Z,79.20
2023-02-02T16:44:04.746Z,53.60
2023-02-02T16:47:25.198Z,100.80
2023-02-02T16:50:33.530Z,305.20
2023-02-02T16:53:41.525Z,403.40
2023-02-02T16:56:34.372Z,395.30
2023-02-02T16:59:27.031Z,247.10
2023-02-02T17:02:06.143Z,71.20
2023-02-02T17:05:12.724Z,75.50
2023-02-02T17:08:00.051Z,52.00
2023-02-02T17:10:38.672Z,60.00
2023-02-02T17:13:45.343Z,82.70
2023-02-02T17:16:24.436Z,52.50
2023-02-02T17:18:54.578Z,28.80
2023-02-02T17:21:49.045Z,23.60
2023-02-02T17:24:39.790Z,22.90
2023-02-02T17:27:19.995Z,23.10
2023-02-02T17:29:53.143Z,62.10
2023-02-02T17:32:42.052Z,91.60
2023-02-02T17:35:53.758Z,27.70
2023-02-02T17:38:51.981Z,24.10
2023-02-02T17:41:25.853Z,51.60
2023-02-02T17:43:58.490Z,22.40
2023-02-02T17:46:37.789Z,20.60
2023-02-02T17:49:21.255Z,15.60
2023-02-02T17:52:07.623Z,58.40
2023-02-02T18:06:02.860Z,14.70
2023-02-02T18:09:03.715Z,10.00
2023-02-02T18:11:51.018Z,11.50
2023-02-02T18:14:40.774Z,13.50
2023-02-02T18:17:11.626Z,12.20
2023-02-02T18:20:10.058Z,16.50
2023-02-02T18:23:30.415Z,14.90
